Terminal Aerodrome Forecast
Issued by NWS Omaha/Valley, NE

Home | Current Version | Previous Version | Text Only | Print | Product List | Glossary On
Versions: 1 2 3 4 5 6 7 8 9 10 11 12 13 14
000
FTUS43 KOAX 270520
TAFLNK
TAF
KLNK 270520Z 2706/2806 15004KT P6SM SCT250
     FM272200 17006KT P6SM BKN200 PROB30 2722/2724 4SM TSRA OVC040CB
     FM280000 10006KT P6SM BKN250=

USA.gov is the U.S. government's official web portal to all federal, state and local government web resources and services.